Time;durP1;ratioP1;P1;durP2;ratioP2;P2;SDS_P1;SDS_P2;PMS_P1;PMS_P2;Temp;Humidity;BMP_temperature;BMP_pressure;BME280_temperature;BME280_humidity;BME280_pressure;Samples;Min_cycle;Max_cycle;Signal;HPM_P1;HPM_P2
2023/01/24 00:00:58;;;;;;;14.50;7.18;;;;;;;;;;4971079;28;20058;-69
2023/01/24 00:03:25;;;;;;;17.75;7.43;;;;;;;;;;4975110;28;20062;-70
2023/01/24 00:05:51;;;;;;;19.70;6.82;;;;;;;;;;4958330;28;20070;-68
2023/01/24 00:08:20;;;;;;;17.25;6.65;;;;;;;;;;4976968;28;20105;-69
2023/01/24 00:10:47;;;;;;;15.52;6.65;;;;;;;;;;4965496;28;20054;-70
2023/01/24 00:13:14;;;;;;;14.37;6.90;;;;;;;;;;4978431;28;20050;-69
2023/01/24 00:15:41;;;;;;;16.52;7.28;;;;;;;;;;4965272;28;20102;-69
2023/01/24 00:18:07;;;;;;;16.13;6.85;;;;;;;;;;4991881;28;20062;-70
2023/01/24 00:20:34;;;;;;;14.50;6.38;;;;;;;;;;4932886;28;20058;-70
2023/01/24 00:23:00;;;;;;;15.68;6.65;;;;;;;;;;4946958;28;20054;-70
2023/01/24 00:25:28;;;;;;;15.43;6.82;;;;;;;;;;4969820;28;20147;-68
2023/01/24 00:27:55;;;;;;;17.17;6.80;;;;;;;;;;4947844;28;20058;-69
2023/01/24 00:30:21;;;;;;;14.43;6.18;;;;;;;;;;4958486;28;20297;-69
2023/01/24 00:32:49;;;;;;;15.85;6.93;;;;;;;;;;4969488;28;21035;-69
2023/01/24 00:35:15;;;;;;;15.25;6.75;;;;;;;;;;4955151;28;20058;-69
2023/01/24 00:37:42;;;;;;;17.20;7.25;;;;;;;;;;4956335;28;20050;-69
2023/01/24 00:40:09;;;;;;;14.57;6.40;;;;;;;;;;4942183;28;20081;-68
2023/01/24 00:42:37;;;;;;;15.45;6.35;;;;;;;;;;4953264;28;20066;-69
2023/01/24 00:45:04;;;;;;;18.87;7.03;;;;;;;;;;4969059;28;20061;-68
2023/01/24 00:47:31;;;;;;;16.35;7.38;;;;;;;;;;4974768;28;20309;-69
2023/01/24 00:49:57;;;;;;;16.77;6.57;;;;;;;;;;4956344;28;20133;-70
2023/01/24 00:52:24;;;;;;;14.30;6.53;;;;;;;;;;4987307;28;20050;-69
2023/01/24 00:54:51;;;;;;;16.48;7.18;;;;;;;;;;4949311;28;20104;-69
2023/01/24 00:57:22;;;;;;;15.50;6.93;;;;;;;;;;4970962;28;20137;-69
2023/01/24 00:59:49;;;;;;;17.75;6.60;;;;;;;;;;4967698;28;20064;-68
2023/01/24 01:02:16;;;;;;;13.50;6.63;;;;;;;;;;4979478;28;20077;-69
2023/01/24 01:04:43;;;;;;;16.50;6.85;;;;;;;;;;4959368;28;20128;-68
2023/01/24 01:07:09;;;;;;;14.95;6.43;;;;;;;;;;4950882;28;20189;-68
2023/01/24 01:09:36;;;;;;;13.95;5.97;;;;;;;;;;4974180;28;20058;-68
2023/01/24 01:12:02;;;;;;;14.77;6.70;;;;;;;;;;4989422;28;20058;-68
2023/01/24 01:17:13;;;;;;;13.75;6.07;;;;;;;;;;4991946;28;20348;-69
2023/01/24 01:19:39;;;;;;;16.87;6.87;;;;;;;;;;4953572;28;20058;-70
2023/01/24 01:22:06;;;;;;;15.48;6.72;;;;;;;;;;4974512;28;20309;-68
2023/01/24 01:24:32;;;;;;;13.00;5.63;;;;;;;;;;4986455;28;20057;-68
2023/01/24 01:26:59;;;;;;;15.27;6.45;;;;;;;;;;4973619;28;20138;-69
2023/01/24 01:29:26;;;;;;;15.80;5.97;;;;;;;;;;4988973;28;20080;-69
2023/01/24 01:31:52;;;;;;;14.50;5.88;;;;;;;;;;4966910;28;20062;-69
2023/01/24 01:34:20;;;;;;;14.25;6.53;;;;;;;;;;4944722;28;20054;-69
2023/01/24 01:36:47;;;;;;;17.58;6.10;;;;;;;;;;4991184;28;20066;-69
2023/01/24 01:39:13;;;;;;;14.57;6.85;;;;;;;;;;4966373;28;20098;-69
2023/01/24 01:41:40;;;;;;;13.63;6.43;;;;;;;;;;4949999;28;20093;-69
2023/01/24 01:47:04;;;;;;;13.25;5.47;;;;;;;;;;4970955;28;20054;-68
2023/01/24 01:49:32;;;;;;;16.25;6.50;;;;;;;;;;4949129;28;20061;-70
2023/01/24 01:52:01;;;;;;;14.88;6.15;;;;;;;;;;4954676;28;20054;-68
2023/01/24 01:54:30;;;;;;;14.85;6.10;;;;;;;;;;4956120;28;20058;-67
2023/01/24 01:56:58;;;;;;;15.30;6.53;;;;;;;;;;4944448;28;20061;-68
2023/01/24 01:59:26;;;;;;;15.02;5.88;;;;;;;;;;4956041;28;20054;-68
2023/01/24 02:01:53;;;;;;;12.95;5.45;;;;;;;;;;4963477;28;20063;-67
2023/01/24 02:04:21;;;;;;;13.70;5.97;;;;;;;;;;4955409;28;20057;-67
2023/01/24 02:06:52;;;;;;;14.27;5.93;;;;;;;;;;4956195;28;20070;-68
2023/01/24 02:09:21;;;;;;;14.07;5.50;;;;;;;;;;4963525;28;20066;-67
2023/01/24 02:11:47;;;;;;;12.02;5.38;;;;;;;;;;4961155;28;20055;-66
2023/01/24 02:17:17;;;;;;;14.05;5.78;;;;;;;;;;4934391;28;20193;-66
2023/01/24 02:19:51;;;;;;;12.80;5.90;;;;;;;;;;4953048;28;20058;-67
2023/01/24 02:22:20;;;;;;;14.13;6.43;;;;;;;;;;4942322;28;20058;-67
2023/01/24 02:24:53;;;;;;;12.90;5.78;;;;;;;;;;4979868;28;20057;-69
2023/01/24 02:27:21;;;;;;;14.25;6.45;;;;;;;;;;4975371;28;20058;-68
2023/01/24 02:29:47;;;;;;;15.77;6.70;;;;;;;;;;4970116;28;20057;-67
2023/01/24 02:32:16;;;;;;;14.65;6.40;;;;;;;;;;4967854;28;20309;-67
2023/01/24 02:34:42;;;;;;;14.40;6.25;;;;;;;;;;4978153;28;20058;-66
2023/01/24 02:37:12;;;;;;;14.65;6.18;;;;;;;;;;5001385;28;20128;-68
2023/01/24 02:39:42;;;;;;;15.85;6.50;;;;;;;;;;4993275;28;20073;-68
2023/01/24 02:42:10;;;;;;;14.80;6.13;;;;;;;;;;4957484;28;20046;-67
2023/01/24 02:44:39;;;;;;;14.68;6.05;;;;;;;;;;4993725;28;20059;-66
2023/01/24 02:47:06;;;;;;;14.60;6.72;;;;;;;;;;4949070;28;20061;-68
2023/01/24 02:49:32;;;;;;;15.50;6.78;;;;;;;;;;4973825;28;20063;-68
2023/01/24 02:54:43;;;;;;;14.95;6.03;;;;;;;;;;4988181;28;20065;-67
2023/01/24 02:59:54;;;;;;;14.60;6.10;;;;;;;;;;4974721;28;20046;-68
2023/01/24 03:02:21;;;;;;;16.85;6.97;;;;;;;;;;4945297;28;20197;-67
2023/01/24 03:04:47;;;;;;;16.23;6.10;;;;;;;;;;4936877;28;20046;-67
2023/01/24 03:07:14;;;;;;;16.50;6.90;;;;;;;;;;4973771;28;20084;-68
2023/01/24 03:09:47;;;;;;;16.15;6.00;;;;;;;;;;4948395;28;20058;-67
2023/01/24 03:36:56;;;;;;;14.57;6.72;;;;;;;;;;4968665;28;20239;-67
2023/01/24 03:42:07;;;;;;;16.05;6.75;;;;;;;;;;4962081;28;20049;-66
2023/01/24 03:44:33;;;;;;;16.63;6.75;;;;;;;;;;4944481;28;20137;-66
2023/01/24 03:47:01;;;;;;;16.63;6.80;;;;;;;;;;4961348;28;20061;-67
2023/01/24 03:52:30;;;;;;;16.63;7.22;;;;;;;;;;4994164;28;20050;-66
2023/01/24 03:54:57;;;;;;;18.42;6.93;;;;;;;;;;4956374;28;20154;-67
2023/01/24 03:57:23;;;;;;;20.90;8.93;;;;;;;;;;4963595;28;20073;-68
2023/01/24 03:59:50;;;;;;;17.98;7.68;;;;;;;;;;4956602;28;20054;-68
2023/01/24 04:02:18;;;;;;;18.58;7.68;;;;;;;;;;4977502;28;20058;-66
2023/01/24 04:07:30;;;;;;;18.30;7.70;;;;;;;;;;4985830;28;20054;-67
2023/01/24 04:09:57;;;;;;;18.33;8.02;;;;;;;;;;4958317;28;20065;-67
2023/01/24 04:12:24;;;;;;;19.52;7.43;;;;;;;;;;4960933;28;20126;-68
2023/01/24 04:14:50;;;;;;;17.15;7.72;;;;;;;;;;4977575;28;21264;-67
2023/01/24 04:17:18;;;;;;;18.75;8.00;;;;;;;;;;4936644;28;20066;-68
2023/01/24 04:19:44;;;;;;;19.98;8.02;;;;;;;;;;4948621;28;20050;-69
2023/01/24 04:22:11;;;;;;;17.13;7.40;;;;;;;;;;4976794;28;20050;-68
2023/01/24 04:24:38;;;;;;;16.83;7.38;;;;;;;;;;5006544;28;20054;-68
2023/01/24 04:27:05;;;;;;;16.20;7.45;;;;;;;;;;4974935;28;20054;-67
2023/01/24 04:29:31;;;;;;;19.67;8.18;;;;;;;;;;4953330;28;20050;-67
2023/01/24 04:31:57;;;;;;;20.08;8.00;;;;;;;;;;4965009;28;20062;-67
2023/01/24 04:34:25;;;;;;;19.00;7.63;;;;;;;;;;5005645;28;20050;-68
2023/01/24 04:36:52;;;;;;;18.92;8.15;;;;;;;;;;4956587;28;20066;-67
2023/01/24 04:39:19;;;;;;;18.67;8.25;;;;;;;;;;4971055;28;20058;-69
2023/01/24 04:41:45;;;;;;;18.73;8.00;;;;;;;;;;4938887;28;20120;-67
2023/01/24 04:44:12;;;;;;;18.08;7.78;;;;;;;;;;4954918;28;20050;-68
2023/01/24 04:46:38;;;;;;;18.02;7.82;;;;;;;;;;4959294;28;20046;-67
2023/01/24 04:49:08;;;;;;;20.65;8.18;;;;;;;;;;4968780;28;20057;-67
2023/01/24 04:51:36;;;;;;;19.42;7.82;;;;;;;;;;4950737;28;20069;-68
2023/01/24 04:54:02;;;;;;;20.60;8.43;;;;;;;;;;4997743;28;20058;-68
2023/01/24 04:56:29;;;;;;;17.80;7.93;;;;;;;;;;4956506;28;20324;-68
2023/01/24 04:58:55;;;;;;;20.52;8.90;;;;;;;;;;4959719;28;20050;-67
2023/01/24 05:01:21;;;;;;;19.05;8.50;;;;;;;;;;4949166;28;20066;-68
2023/01/24 05:03:48;;;;;;;17.02;8.23;;;;;;;;;;4935701;28;20057;-67
2023/01/24 05:06:14;;;;;;;21.85;8.95;;;;;;;;;;4998003;28;20060;-68
2023/01/24 05:08:42;;;;;;;21.88;8.48;;;;;;;;;;4955933;28;20386;-68
2023/01/24 05:11:14;;;;;;;19.60;8.67;;;;;;;;;;5001400;28;20061;-67
2023/01/24 05:13:41;;;;;;;18.83;8.15;;;;;;;;;;4944626;28;20296;-67
2023/01/24 05:16:07;;;;;;;18.33;8.20;;;;;;;;;;4969132;28;20133;-66
2023/01/24 05:18:34;;;;;;;18.40;8.95;;;;;;;;;;4977020;28;20081;-67
2023/01/24 05:21:05;;;;;;;20.10;8.93;;;;;;;;;;4978012;28;20054;-67
2023/01/24 05:23:31;;;;;;;21.70;9.23;;;;;;;;;;4945259;28;20046;-69
2023/01/24 05:26:00;;;;;;;19.70;8.73;;;;;;;;;;4955849;28;20065;-67
2023/01/24 05:28:26;;;;;;;;;;;;;;;;;;4960305;28;20078;-68
2023/01/24 05:30:53;;;;;;;21.40;9.00;;;;;;;;;;4975533;28;19983;-69
2023/01/24 05:33:19;;;;;;;20.15;8.30;;;;;;;;;;4943281;28;20057;-67
2023/01/24 05:35:46;;;;;;;22.42;9.10;;;;;;;;;;4987337;28;20058;-66
2023/01/24 05:38:12;;;;;;;20.85;8.93;;;;;;;;;;4965479;28;20049;-66
2023/01/24 05:40:39;;;;;;;21.80;9.25;;;;;;;;;;4968897;28;20058;-67
2023/01/24 05:43:07;;;;;;;21.48;9.32;;;;;;;;;;4955174;28;20085;-68
2023/01/24 05:45:34;;;;;;;23.20;9.88;;;;;;;;;;4970162;28;21070;-67
2023/01/24 05:48:00;;;;;;;21.08;8.70;;;;;;;;;;4958787;28;20120;-67
2023/01/24 05:50:29;;;;;;;20.25;9.05;;;;;;;;;;4966108;28;20124;-68
2023/01/24 05:52:55;;;;;;;23.08;9.63;;;;;;;;;;4973661;28;20092;-67
2023/01/24 05:55:22;;;;;;;23.98;9.30;;;;;;;;;;4948360;28;20068;-66
2023/01/24 05:57:48;;;;;;;19.60;8.90;;;;;;;;;;4948813;28;20058;-67
2023/01/24 06:00:17;;;;;;;18.77;8.07;;;;;;;;;;4993041;28;20062;-67
2023/01/24 06:02:43;;;;;;;23.23;10.07;;;;;;;;;;4966412;28;20068;-67
2023/01/24 06:05:10;;;;;;;22.05;8.75;;;;;;;;;;4940394;28;20134;-67
2023/01/24 06:07:37;;;;;;;20.63;9.18;;;;;;;;;;4977898;28;20058;-70
2023/01/24 06:10:03;;;;;;;23.27;9.38;;;;;;;;;;4968944;28;20137;-67
2023/01/24 06:12:30;;;;;;;22.88;10.02;;;;;;;;;;4983451;28;20069;-68
2023/01/24 06:14:56;;;;;;;23.50;9.68;;;;;;;;;;4947799;28;20419;-68
2023/01/24 06:17:24;;;;;;;22.08;8.98;;;;;;;;;;4970490;28;20054;-68
2023/01/24 06:19:54;;;;;;;23.63;9.32;;;;;;;;;;4971101;28;20050;-70
2023/01/24 06:22:29;;;;;;;21.42;8.38;;;;;;;;;;4995440;28;20099;-70
2023/01/24 06:24:56;;;;;;;18.67;7.90;;;;;;;;;;4920850;28;20085;-69
2023/01/24 06:27:23;;;;;;;20.98;8.63;;;;;;;;;;4981764;28;20058;-66
2023/01/24 06:29:49;;;;;;;21.98;9.02;;;;;;;;;;4990586;28;20058;-66
2023/01/24 06:32:24;;;;;;;23.80;9.35;;;;;;;;;;4969893;28;20097;-67
2023/01/24 06:35:00;;;;;;;19.90;8.90;;;;;;;;;;5002844;28;20064;-68
2023/01/24 06:37:30;;;;;;;20.30;8.70;;;;;;;;;;5000270;28;20185;-67
2023/01/24 06:39:57;;;;;;;23.20;9.77;;;;;;;;;;4987896;28;20064;-68
2023/01/24 06:42:24;;;;;;;22.35;8.88;;;;;;;;;;4972385;28;20065;-68
2023/01/24 06:44:50;;;;;;;25.17;9.75;;;;;;;;;;4966493;28;20065;-68
2023/01/24 06:47:17;;;;;;;23.60;9.57;;;;;;;;;;4969842;28;20068;-68
2023/01/24 06:49:44;;;;;;;21.50;8.68;;;;;;;;;;4971366;28;20200;-67
2023/01/24 06:52:13;;;;;;;23.60;9.32;;;;;;;;;;4967401;28;20440;-67
2023/01/24 06:54:40;;;;;;;22.75;9.65;;;;;;;;;;4917953;28;20074;-68
2023/01/24 06:57:06;;;;;;;24.75;9.60;;;;;;;;;;4952204;28;20058;-67
2023/01/24 06:59:32;;;;;;;23.65;9.18;;;;;;;;;;4962025;28;20053;-67
2023/01/24 07:01:59;;;;;;;22.83;8.45;;;;;;;;;;4975009;28;20074;-66
2023/01/24 07:04:26;;;;;;;24.77;10.23;;;;;;;;;;4962222;28;20058;-68
2023/01/24 07:06:52;;;;;;;20.13;9.02;;;;;;;;;;4978442;28;20046;-68
2023/01/24 07:09:21;;;;;;;22.48;9.32;;;;;;;;;;4952151;28;20062;-67
2023/01/24 07:11:49;;;;;;;20.33;8.98;;;;;;;;;;4950395;28;20050;-67
2023/01/24 07:14:16;;;;;;;23.88;9.70;;;;;;;;;;4964519;28;21595;-67
2023/01/24 07:20:31;;;;;;;24.95;9.73;;;;;;;;;;4918303;28;20055;-69
2023/01/24 07:36:34;;;;;;;23.33;8.52;;;;;;;;;;4965334;27;20483;-70
2023/01/24 07:39:01;;;;;;;21.70;8.80;;;;;;;;;;4933039;28;20050;-71
2023/01/24 07:41:27;;;;;;;19.20;8.80;;;;;;;;;;4962805;28;20065;-70
2023/01/24 07:43:56;;;;;;;21.90;9.18;;;;;;;;;;4951604;28;20044;-70
2023/01/24 07:46:23;;;;;;;23.75;9.23;;;;;;;;;;4986479;28;20158;-71
2023/01/24 07:48:49;;;;;;;25.38;9.73;;;;;;;;;;4966609;28;20054;-72
2023/01/24 07:54:37;;;;;;;23.65;8.85;;;;;;;;;;4881428;28;20195;-71
2023/01/24 07:57:07;;;;;;;24.50;10.38;;;;;;;;;;5023058;28;20065;-71
2023/01/24 07:59:35;;;;;;;24.25;9.82;;;;;;;;;;4959445;28;20265;-72
2023/01/24 08:02:05;;;;;;;21.67;9.25;;;;;;;;;;4942637;28;20264;-72
2023/01/24 08:04:34;;;;;;;20.88;9.05;;;;;;;;;;4929445;28;20056;-72
2023/01/24 08:09:47;;;;;;;20.75;9.60;;;;;;;;;;4901896;28;20414;-71
2023/01/24 08:17:39;;;;;;;26.60;9.90;;;;;;;;;;4868510;29;20251;-71
2023/01/24 08:20:07;;;;;;;27.02;10.73;;;;;;;;;;4876575;28;20059;-71
2023/01/24 08:22:34;;;;;;;21.70;10.18;;;;;;;;;;4969833;28;20057;-70
2023/01/24 08:25:11;;;;;;;20.88;9.40;;;;;;;;;;4958011;28;20058;-70
2023/01/24 08:27:42;;;;;;;29.10;10.40;;;;;;;;;;4954999;28;20123;-71
2023/01/24 08:30:17;;;;;;;20.27;8.85;;;;;;;;;;4968777;28;20042;-70
2023/01/24 08:32:43;;;;;;;22.10;9.40;;;;;;;;;;4947565;28;20050;-71
2023/01/24 08:35:16;;;;;;;23.30;9.50;;;;;;;;;;4907810;28;20124;-72
2023/01/24 08:37:44;;;;;;;28.80;10.38;;;;;;;;;;4939928;28;20069;-70
2023/01/24 08:40:14;;;;;;;23.17;10.00;;;;;;;;;;4926536;28;20059;-71
2023/01/24 08:42:41;;;;;;;23.83;9.70;;;;;;;;;;4933626;28;20068;-72
2023/01/24 08:45:15;;;;;;;22.67;9.68;;;;;;;;;;4892113;28;20139;-72
2023/01/24 08:47:44;;;;;;;23.10;10.32;;;;;;;;;;4874275;28;20051;-70
2023/01/24 08:50:14;;;;;;;25.63;10.90;;;;;;;;;;4936990;28;20138;-69
2023/01/24 08:52:41;;;;;;;27.30;10.73;;;;;;;;;;4946765;28;20054;-69
2023/01/24 08:55:23;;;;;;;22.42;9.88;;;;;;;;;;4908370;28;20112;-72
2023/01/24 08:57:51;;;;;;;24.73;10.30;;;;;;;;;;4961062;28;20073;-69
2023/01/24 09:00:18;;;;;;;29.67;10.57;;;;;;;;;;5037683;28;20054;-68
2023/01/24 09:02:45;;;;;;;24.35;10.35;;;;;;;;;;4948544;28;20145;-68
2023/01/24 09:05:12;;;;;;;24.40;10.15;;;;;;;;;;4968265;28;20148;-70
2023/01/24 09:07:45;;;;;;;20.98;9.57;;;;;;;;;;4920336;28;20108;-69
2023/01/24 09:10:14;;;;;;;26.27;9.95;;;;;;;;;;4912973;28;20051;-67
2023/01/24 09:12:49;;;;;;;23.80;10.73;;;;;;;;;;4936273;28;20060;-67
2023/01/24 09:15:20;;;;;;;23.15;9.82;;;;;;;;;;5021648;28;20440;-68
2023/01/24 09:17:49;;;;;;;28.48;9.65;;;;;;;;;;4994495;28;20081;-69
2023/01/24 09:20:26;;;;;;;23.45;10.18;;;;;;;;;;4939378;28;20079;-68
2023/01/24 09:22:55;;;;;;;22.92;9.23;;;;;;;;;;4945240;28;20054;-67
2023/01/24 09:25:30;;;;;;;26.88;10.90;;;;;;;;;;4911040;28;20141;-68
2023/01/24 09:27:59;;;;;;;23.70;10.27;;;;;;;;;;4939435;28;20050;-69
2023/01/24 09:30:28;;;;;;;22.73;10.00;;;;;;;;;;4942724;28;20163;-69
2023/01/24 09:32:55;;;;;;;26.00;9.95;;;;;;;;;;4932390;28;20061;-69
2023/01/24 09:35:33;;;;;;;24.13;10.50;;;;;;;;;;4886319;28;20124;-67
2023/01/24 09:38:00;;;;;;;20.88;10.00;;;;;;;;;;4945064;28;20066;-69
2023/01/24 09:40:29;;;;;;;25.13;10.25;;;;;;;;;;5032598;28;20062;-68
2023/01/24 09:43:00;;;;;;;23.48;10.95;;;;;;;;;;4958137;28;20050;-68
2023/01/24 09:45:30;;;;;;;23.02;10.35;;;;;;;;;;4927043;28;20058;-69
2023/01/24 09:47:59;;;;;;;23.92;10.10;;;;;;;;;;5054082;28;20059;-69
2023/01/24 09:50:34;;;;;;;23.10;9.93;;;;;;;;;;4934077;28;20150;-67
2023/01/24 09:53:00;;;;;;;23.90;10.90;;;;;;;;;;4938686;28;20065;-67
2023/01/24 09:55:31;;;;;;;23.85;9.70;;;;;;;;;;4896354;28;20137;-68
2023/01/24 09:58:04;;;;;;;23.77;9.55;;;;;;;;;;4960059;28;20066;-69
2023/01/24 10:00:43;;;;;;;25.77;10.30;;;;;;;;;;4930770;28;20051;-67
2023/01/24 10:03:16;;;;;;;25.02;10.30;;;;;;;;;;4876436;28;20047;-70
2023/01/24 10:05:48;;;;;;;22.70;9.57;;;;;;;;;;4904493;28;20059;-69
2023/01/24 10:08:24;;;;;;;24.17;10.07;;;;;;;;;;4927764;28;20057;-68
2023/01/24 10:10:53;;;;;;;23.98;10.23;;;;;;;;;;4947167;28;20062;-68
2023/01/24 10:13:30;;;;;;;26.17;10.40;;;;;;;;;;4937825;28;20050;-69
2023/01/24 10:16:05;;;;;;;21.10;9.68;;;;;;;;;;4940989;28;20051;-69
2023/01/24 10:18:39;;;;;;;22.10;9.55;;;;;;;;;;4984634;28;20055;-69
2023/01/24 10:21:23;;;;;;;20.38;9.27;;;;;;;;;;4960067;28;20053;-69
2023/01/24 10:23:51;;;;;;;23.17;10.15;;;;;;;;;;4939614;28;20049;-67
2023/01/24 10:26:19;;;;;;;20.60;8.63;;;;;;;;;;4926892;28;20058;-68
2023/01/24 10:28:48;;;;;;;23.80;9.70;;;;;;;;;;4933365;28;20173;-68
2023/01/24 10:31:21;;;;;;;22.23;9.82;;;;;;;;;;5001330;28;20094;-67
2023/01/24 10:33:49;;;;;;;20.77;9.25;;;;;;;;;;4952576;28;20055;-68
2023/01/24 10:36:20;;;;;;;20.83;9.00;;;;;;;;;;4956985;28;20069;-67
2023/01/24 10:38:46;;;;;;;24.58;9.93;;;;;;;;;;5045763;28;20112;-67
2023/01/24 10:41:18;;;;;;;27.65;9.80;;;;;;;;;;4950463;28;20081;-70
2023/01/24 10:43:54;;;;;;;24.25;9.95;;;;;;;;;;4951430;28;20054;-68
2023/01/24 10:46:35;;;;;;;20.02;9.48;;;;;;;;;;4894175;28;20055;-67
2023/01/24 10:49:10;;;;;;;22.73;9.15;;;;;;;;;;4940155;28;20054;-68
2023/01/24 10:51:41;;;;;;;22.98;10.60;;;;;;;;;;4988570;28;20052;-70
2023/01/24 10:54:18;;;;;;;26.15;9.98;;;;;;;;;;5026526;28;20079;-70
2023/01/24 10:56:48;;;;;;;26.30;11.02;;;;;;;;;;5017656;28;20077;-71
2023/01/24 10:59:15;;;;;;;21.25;9.48;;;;;;;;;;4951104;28;20120;-68
2023/01/24 11:01:50;;;;;;;21.58;10.13;;;;;;;;;;4966567;28;20062;-69
2023/01/24 11:04:21;;;;;;;21.77;10.20;;;;;;;;;;4946393;28;20046;-68
2023/01/24 11:06:49;;;;;;;21.67;9.48;;;;;;;;;;5044130;28;20057;-68
2023/01/24 11:09:16;;;;;;;;;;;;;;;;;;4922343;28;20054;-67
2023/01/24 11:11:45;;;;;;;20.80;9.13;;;;;;;;;;4927041;28;19926;-69
2023/01/24 11:14:16;;;;;;;19.25;9.15;;;;;;;;;;4931455;28;20221;-68
2023/01/24 11:16:47;;;;;;;22.15;9.52;;;;;;;;;;4938055;28;20053;-69
2023/01/24 11:19:28;;;;;;;22.55;9.85;;;;;;;;;;4938243;28;20047;-68
2023/01/24 11:21:56;;;;;;;19.75;8.82;;;;;;;;;;5076682;28;20111;-70
2023/01/24 11:24:22;;;;;;;22.98;10.32;;;;;;;;;;4962190;28;20157;-70
2023/01/24 11:26:54;;;;;;;26.25;10.57;;;;;;;;;;4932699;28;20058;-69
2023/01/24 11:29:21;;;;;;;24.65;9.65;;;;;;;;;;5010900;28;20056;-69
2023/01/24 11:31:50;;;;;;;18.65;8.80;;;;;;;;;;4964883;28;20108;-69
2023/01/24 11:34:45;;;;;;;21.67;9.55;;;;;;;;;;5024322;28;20210;-69
2023/01/24 11:37:21;;;;;;;21.17;9.60;;;;;;;;;;4928191;28;20046;-69
2023/01/24 11:39:53;;;;;;;20.77;9.75;;;;;;;;;;4919869;28;20062;-68
2023/01/24 11:42:26;;;;;;;19.65;8.90;;;;;;;;;;4975358;28;20286;-68
2023/01/24 11:45:02;;;;;;;21.73;9.40;;;;;;;;;;4961300;28;20050;-70
2023/01/24 11:47:37;;;;;;;24.38;9.70;;;;;;;;;;4948886;28;20081;-70
2023/01/24 11:50:26;;;;;;;22.85;8.93;;;;;;;;;;4948007;28;20064;-69
2023/01/24 11:52:58;;;;;;;20.45;9.15;;;;;;;;;;4950748;28;20057;-70
2023/01/24 11:55:32;;;;;;;21.00;9.60;;;;;;;;;;4929157;28;20065;-68
2023/01/24 11:58:03;;;;;;;20.55;9.43;;;;;;;;;;4974818;28;20054;-68
2023/01/24 12:00:37;;;;;;;24.35;9.65;;;;;;;;;;4943913;28;20058;-69
2023/01/24 12:03:27;;;;;;;21.48;9.23;;;;;;;;;;4961194;28;20212;-69
2023/01/24 12:06:02;;;;;;;19.80;8.88;;;;;;;;;;4921047;28;20062;-68
2023/01/24 12:08:38;;;;;;;19.63;8.82;;;;;;;;;;4923932;28;20064;-68
2023/01/24 12:11:08;;;;;;;22.45;9.25;;;;;;;;;;4979059;28;20097;-70
2023/01/24 12:13:42;;;;;;;24.00;10.23;;;;;;;;;;4922006;28;20353;-68
2023/01/24 12:16:15;;;;;;;24.65;9.77;;;;;;;;;;4919648;28;20124;-68
2023/01/24 12:18:54;;;;;;;23.17;10.55;;;;;;;;;;5025162;28;20056;-69
2023/01/24 12:21:24;;;;;;;18.75;9.02;;;;;;;;;;4974996;28;20057;-70
2023/01/24 12:23:55;;;;;;;20.70;9.40;;;;;;;;;;4995213;28;20048;-69
2023/01/24 12:26:25;;;;;;;22.40;10.13;;;;;;;;;;4918612;28;20056;-69
2023/01/24 12:28:56;;;;;;;20.95;9.18;;;;;;;;;;4943922;28;20124;-70
2023/01/24 12:31:27;;;;;;;18.95;8.90;;;;;;;;;;4997991;28;20080;-69
2023/01/24 12:34:05;;;;;;;21.63;9.10;;;;;;;;;;5045977;28;20048;-69
2023/01/24 12:36:40;;;;;;;21.23;9.40;;;;;;;;;;4945840;28;20060;-69
2023/01/24 12:39:29;;;;;;;19.60;9.18;;;;;;;;;;4944517;28;20050;-70
2023/01/24 13:01:58;;;;;;;;;;;;;;;;;;;;;
2023/01/24 13:59:39;;;;;;;19.98;8.38;;;;;;;;;;4876042;28;20066;-70
2023/01/24 14:43:59;;;;;;;16.42;6.43;;;;;;;;;;5989452;22;6628344;-72
2023/01/24 14:46:28;;;;;;;18.15;7.40;;;;;;;;;;6132233;22;20020;-71
2023/01/24 14:48:56;;;;;;;15.10;7.22;;;;;;;;;;6181722;23;20024;-71
2023/01/24 14:51:29;;;;;;;16.65;7.97;;;;;;;;;;6138294;23;20272;-72
2023/01/24 14:54:05;;;;;;;17.23;7.85;;;;;;;;;;6131628;22;20555;-73
2023/01/24 15:02:07;;;;;;;15.70;7.20;;;;;;;;;;6029270;23;20025;-72
2023/01/24 15:04:35;;;;;;;17.15;7.63;;;;;;;;;;6033537;23;20030;-72
2023/01/24 15:09:31;;;;;;;14.27;7.15;;;;;;;;;;5902098;23;20031;-74
2023/01/24 15:12:12;;;;;;;15.15;7.20;;;;;;;;;;6063807;23;20068;-75
2023/01/24 15:14:39;;;;;;;16.58;7.10;;;;;;;;;;6060513;23;20061;-75
2023/01/24 15:17:19;;;;;;;15.73;7.10;;;;;;;;;;6059438;23;20029;-73
2023/01/24 15:19:47;;;;;;;17.02;7.40;;;;;;;;;;6096787;23;20033;-74
2023/01/24 15:22:20;;;;;;;17.23;7.85;;;;;;;;;;6132239;23;20025;-75
2023/01/24 15:24:59;;;;;;;19.58;7.75;;;;;;;;;;6148090;22;20093;-70
2023/01/24 15:32:44;;;;;;;19.43;7.73;;;;;;;;;;6029285;23;20100;-76
2023/01/24 15:35:28;;;;;;;14.73;7.05;;;;;;;;;;6097141;23;20218;-78
2023/01/24 15:38:15;;;;;;;15.82;7.22;;;;;;;;;;6070384;23;20021;-72
2023/01/24 15:40:54;;;;;;;16.63;7.35;;;;;;;;;;6126436;23;20111;-72
2023/01/24 15:49:20;;;;;;;18.23;7.03;;;;;;;;;;6110035;22;20024;-78
2023/01/24 15:52:16;;;;;;;16.05;6.85;;;;;;;;;;6002799;23;20035;-73
2023/01/24 15:54:44;;;;;;;16.95;7.38;;;;;;;;;;5968642;23;20086;-78
2023/01/24 15:57:17;;;;;;;18.00;7.40;;;;;;;;;;5947272;23;20030;-73
2023/01/24 15:59:46;;;;;;;17.40;7.50;;;;;;;;;;6077530;23;20064;-69
2023/01/24 16:02:13;;;;;;;16.27;6.45;;;;;;;;;;6110082;23;20092;-71
2023/01/24 16:04:42;;;;;;;17.63;7.63;;;;;;;;;;6069795;23;20035;-69
2023/01/24 16:07:11;;;;;;;;;;;;;;;;;;6137786;22;20043;-72
2023/01/24 16:09:38;;;;;;;13.15;6.32;;;;;;;;;;6165852;22;19923;-68
2023/01/24 16:12:05;;;;;;;17.15;7.85;;;;;;;;;;6188396;22;20026;-69
2023/01/24 16:14:34;;;;;;;16.73;7.40;;;;;;;;;;6186965;22;20020;-69
2023/01/24 16:17:03;;;;;;;16.00;7.20;;;;;;;;;;6166059;22;20024;-70
2023/01/24 16:19:31;;;;;;;16.13;7.40;;;;;;;;;;6206769;22;20024;-72
2023/01/24 16:21:59;;;;;;;15.10;6.97;;;;;;;;;;6186338;22;20094;-72
2023/01/24 16:24:27;;;;;;;16.38;7.47;;;;;;;;;;6149177;22;20023;-69
2023/01/24 16:26:55;;;;;;;17.00;7.53;;;;;;;;;;6198125;22;20035;-72
2023/01/24 16:29:23;;;;;;;16.00;7.05;;;;;;;;;;6192221;22;20023;-67
2023/01/24 16:31:52;;;;;;;16.23;6.63;;;;;;;;;;6201206;22;20077;-71
2023/01/24 16:34:18;;;;;;;;;;;;;;;;;;6201414;22;20072;-69
2023/01/24 16:36:45;;;;;;;14.13;6.78;;;;;;;;;;6189009;22;20000;-72
2023/01/24 16:39:14;;;;;;;14.57;6.53;;;;;;;;;;6208617;22;20035;-71
2023/01/24 16:41:40;;;;;;;;;;;;;;;;;;6214889;22;20141;-69
2023/01/24 16:44:09;;;;;;;14.35;6.50;;;;;;;;;;6187542;22;19985;-73
2023/01/24 16:46:35;;;;;;;16.63;7.55;;;;;;;;;;6201586;22;20262;-69
2023/01/24 16:49:02;;;;;;;13.55;6.65;;;;;;;;;;6144867;22;20024;-71
2023/01/24 16:51:29;;;;;;;13.73;6.68;;;;;;;;;;6193755;22;20031;-70
2023/01/24 16:53:56;;;;;;;13.63;6.45;;;;;;;;;;6199362;22;20019;-69
2023/01/24 16:56:22;;;;;;;14.48;7.13;;;;;;;;;;6190020;22;20023;-71
2023/01/24 16:58:49;;;;;;;15.68;6.80;;;;;;;;;;6187904;22;20115;-68
2023/01/24 17:01:18;;;;;;;14.38;7.25;;;;;;;;;;6220754;22;20054;-70
2023/01/24 17:03:45;;;;;;;14.50;7.10;;;;;;;;;;6179249;22;20024;-68
2023/01/24 17:06:15;;;;;;;13.43;6.43;;;;;;;;;;6173588;22;20034;-72
2023/01/24 17:08:44;;;;;;;13.27;6.82;;;;;;;;;;6167151;22;20019;-68
2023/01/24 17:11:12;;;;;;;14.02;6.70;;;;;;;;;;6179818;22;20023;-72
2023/01/24 17:13:39;;;;;;;16.42;7.18;;;;;;;;;;6177739;22;20036;-71
2023/01/24 17:16:06;;;;;;;14.35;7.05;;;;;;;;;;6184281;22;20320;-72
2023/01/24 17:18:34;;;;;;;14.40;6.88;;;;;;;;;;6189810;22;20028;-70
2023/01/24 17:21:02;;;;;;;15.38;6.85;;;;;;;;;;6198932;22;20122;-70
2023/01/24 17:23:29;;;;;;;13.27;6.53;;;;;;;;;;6208684;22;20101;-69
2023/01/24 17:26:00;;;;;;;14.57;6.68;;;;;;;;;;6185716;22;20349;-70
2023/01/24 17:28:27;;;;;;;15.75;6.60;;;;;;;;;;6116840;23;20024;-71
2023/01/24 17:30:53;;;;;;;15.35;7.25;;;;;;;;;;6084335;23;20100;-70
2023/01/24 17:33:20;;;;;;;13.30;6.57;;;;;;;;;;6177655;22;20040;-71
2023/01/24 17:35:49;;;;;;;16.23;7.82;;;;;;;;;;6187778;22;20030;-70
2023/01/24 17:38:15;;;;;;;16.35;7.25;;;;;;;;;;6183662;22;20020;-71
2023/01/24 17:40:42;;;;;;;14.55;7.18;;;;;;;;;;6185249;22;20015;-69
2023/01/24 17:43:10;;;;;;;17.75;7.40;;;;;;;;;;6188666;22;20019;-70
2023/01/24 17:45:37;;;;;;;;;;;;;;;;;;6173026;22;20023;-67
2023/01/24 17:48:03;;;;;;;15.88;7.32;;;;;;;;;;6129074;23;19920;-68
2023/01/24 17:50:30;;;;;;;17.42;7.57;;;;;;;;;;6171470;22;20127;-68
2023/01/24 17:52:58;;;;;;;15.23;7.55;;;;;;;;;;6227910;22;20035;-69
2023/01/24 17:55:24;;;;;;;15.60;7.50;;;;;;;;;;6185271;22;20050;-68
2023/01/24 17:57:51;;;;;;;15.00;7.40;;;;;;;;;;6187014;22;20098;-71
2023/01/24 18:00:18;;;;;;;15.07;7.25;;;;;;;;;;6212929;22;20024;-67
2023/01/24 18:02:46;;;;;;;15.52;7.47;;;;;;;;;;6188500;22;20016;-70
2023/01/24 18:05:18;;;;;;;13.77;6.85;;;;;;;;;;6180253;22;20057;-70
2023/01/24 18:07:45;;;;;;;16.60;7.57;;;;;;;;;;6179272;22;20027;-69
2023/01/24 18:10:14;;;;;;;17.30;8.10;;;;;;;;;;6189121;22;20130;-69
2023/01/24 18:12:41;;;;;;;15.85;7.10;;;;;;;;;;6180836;22;20020;-70
2023/01/24 18:15:13;;;;;;;16.42;7.57;;;;;;;;;;6190384;22;20023;-68